sensor_id;sensor_type;location;lat;lon;timestamp;P1;durP1;ratioP1;P2;durP2;ratioP2
10007;SDS011;5043;41.766;26.204;2022-10-17T00:00:18;5.97;;;3.20;;
10007;SDS011;5043;41.766;26.204;2022-10-17T00:02:43;3.83;;;2.65;;
10007;SDS011;5043;41.766;26.204;2022-10-17T00:05:09;5.55;;;3.08;;
10007;SDS011;5043;41.766;26.204;2022-10-17T00:07:36;5.65;;;3.60;;
10007;SDS011;5043;41.766;26.204;2022-10-17T00:10:02;8.82;;;3.60;;
10007;SDS011;5043;41.766;26.204;2022-10-17T00:12:29;6.20;;;3.00;;
10007;SDS011;5043;41.766;26.204;2022-10-17T00:14:54;6.38;;;3.42;;
10007;SDS011;5043;41.766;26.204;2022-10-17T00:17:19;6.03;;;2.83;;
10007;SDS011;5043;41.766;26.204;2022-10-17T00:19:45;7.90;;;2.95;;
10007;SDS011;5043;41.766;26.204;2022-10-17T00:22:11;4.53;;;2.65;;
10007;SDS011;5043;41.766;26.204;2022-10-17T00:24:37;5.57;;;2.78;;
10007;SDS011;5043;41.766;26.204;2022-10-17T00:27:02;4.95;;;2.80;;
10007;SDS011;5043;41.766;26.204;2022-10-17T00:29:28;5.07;;;2.80;;
10007;SDS011;5043;41.766;26.204;2022-10-17T00:31:54;9.02;;;3.08;;
10007;SDS011;5043;41.766;26.204;2022-10-17T00:34:20;12.88;;;3.72;;
10007;SDS011;5043;41.766;26.204;2022-10-17T00:36:46;5.57;;;3.20;;
10007;SDS011;5043;41.766;26.204;2022-10-17T00:39:11;5.15;;;3.17;;
10007;SDS011;5043;41.766;26.204;2022-10-17T00:41:37;2.95;;;2.63;;
10007;SDS011;5043;41.766;26.204;2022-10-17T00:44:07;4.72;;;3.17;;
10007;SDS011;5043;41.766;26.204;2022-10-17T00:46:53;3.92;;;3.30;;
10007;SDS011;5043;41.766;26.204;2022-10-17T00:49:22;9.80;;;3.45;;
10007;SDS011;5043;41.766;26.204;2022-10-17T00:51:54;8.50;;;3.85;;
10007;SDS011;5043;41.766;26.204;2022-10-17T00:54:23;4.60;;;3.05;;
10007;SDS011;5043;41.766;26.204;2022-10-17T00:56:52;12.40;;;3.53;;
10007;SDS011;5043;41.766;26.204;2022-10-17T00:59:19;3.63;;;2.78;;
10007;SDS011;5043;41.766;26.204;2022-10-17T01:01:52;6.05;;;3.60;;
10007;SDS011;5043;41.766;26.204;2022-10-17T01:04:24;3.22;;;2.95;;
10007;SDS011;5043;41.766;26.204;2022-10-17T01:06:49;3.92;;;2.80;;
10007;SDS011;5043;41.766;26.204;2022-10-17T01:09:14;5.53;;;3.00;;
10007;SDS011;5043;41.766;26.204;2022-10-17T01:11:51;7.35;;;3.00;;
10007;SDS011;5043;41.766;26.204;2022-10-17T01:14:23;3.30;;;2.95;;
10007;SDS011;5043;41.766;26.204;2022-10-17T01:16:59;5.00;;;3.63;;
10007;SDS011;5043;41.766;26.204;2022-10-17T01:19:43;6.32;;;3.65;;
10007;SDS011;5043;41.766;26.204;2022-10-17T01:22:15;7.45;;;4.03;;
10007;SDS011;5043;41.766;26.204;2022-10-17T01:28:06;3.88;;;3.47;;
10007;SDS011;5043;41.766;26.204;2022-10-17T01:33:29;9.32;;;3.20;;
10007;SDS011;5043;41.766;26.204;2022-10-17T01:38:33;6.97;;;3.85;;
10007;SDS011;5043;41.766;26.204;2022-10-17T01:41:05;4.25;;;3.85;;
10007;SDS011;5043;41.766;26.204;2022-10-17T01:43:43;5.13;;;3.95;;
10007;SDS011;5043;41.766;26.204;2022-10-17T01:46:16;5.22;;;3.25;;
10007;SDS011;5043;41.766;26.204;2022-10-17T01:48:50;9.05;;;3.58;;
10007;SDS011;5043;41.766;26.204;2022-10-17T01:54:26;3.88;;;3.45;;
10007;SDS011;5043;41.766;26.204;2022-10-17T01:57:03;6.50;;;4.43;;
10007;SDS011;5043;41.766;26.204;2022-10-17T01:59:37;9.55;;;4.10;;
10007;SDS011;5043;41.766;26.204;2022-10-17T02:02:05;7.07;;;4.00;;
10007;SDS011;5043;41.766;26.204;2022-10-17T02:04:32;5.63;;;4.13;;
10007;SDS011;5043;41.766;26.204;2022-10-17T02:07:06;6.07;;;4.07;;
10007;SDS011;5043;41.766;26.204;2022-10-17T02:09:33;5.87;;;3.97;;
10007;SDS011;5043;41.766;26.204;2022-10-17T02:12:08;4.40;;;3.97;;
10007;SDS011;5043;41.766;26.204;2022-10-17T02:20:25;13.17;;;5.43;;
10007;SDS011;5043;41.766;26.204;2022-10-17T02:25:33;6.60;;;5.30;;
10007;SDS011;5043;41.766;26.204;2022-10-17T02:28:15;5.68;;;4.63;;
10007;SDS011;5043;41.766;26.204;2022-10-17T02:33:52;8.40;;;5.15;;
10007;SDS011;5043;41.766;26.204;2022-10-17T02:36:27;13.60;;;4.70;;
10007;SDS011;5043;41.766;26.204;2022-10-17T02:38:56;7.03;;;4.50;;
10007;SDS011;5043;41.766;26.204;2022-10-17T02:41:23;6.80;;;4.45;;
10007;SDS011;5043;41.766;26.204;2022-10-17T02:43:50;5.55;;;4.60;;
10007;SDS011;5043;41.766;26.204;2022-10-17T02:46:18;5.93;;;4.63;;
10007;SDS011;5043;41.766;26.204;2022-10-17T02:48:51;8.45;;;4.38;;
10007;SDS011;5043;41.766;26.204;2022-10-17T02:51:32;6.70;;;4.82;;
10007;SDS011;5043;41.766;26.204;2022-10-17T02:54:13;7.63;;;5.20;;
10007;SDS011;5043;41.766;26.204;2022-10-17T02:56:52;9.65;;;5.65;;
10007;SDS011;5043;41.766;26.204;2022-10-17T02:59:21;6.55;;;5.30;;
10007;SDS011;5043;41.766;26.204;2022-10-17T03:01:50;6.47;;;4.70;;
10007;SDS011;5043;41.766;26.204;2022-10-17T03:04:16;8.23;;;5.18;;
10007;SDS011;5043;41.766;26.204;2022-10-17T03:06:43;6.38;;;4.80;;
10007;SDS011;5043;41.766;26.204;2022-10-17T03:09:10;7.63;;;4.85;;
10007;SDS011;5043;41.766;26.204;2022-10-17T03:11:35;7.33;;;5.27;;
10007;SDS011;5043;41.766;26.204;2022-10-17T03:14:01;7.17;;;5.63;;
10007;SDS011;5043;41.766;26.204;2022-10-17T03:16:26;9.38;;;5.70;;
10007;SDS011;5043;41.766;26.204;2022-10-17T03:18:52;6.80;;;6.05;;
10007;SDS011;5043;41.766;26.204;2022-10-17T03:21:17;6.68;;;5.88;;
10007;SDS011;5043;41.766;26.204;2022-10-17T03:23:42;8.13;;;6.30;;
10007;SDS011;5043;41.766;26.204;2022-10-17T03:26:08;12.13;;;6.78;;
10007;SDS011;5043;41.766;26.204;2022-10-17T03:28:34;13.43;;;6.72;;
10007;SDS011;5043;41.766;26.204;2022-10-17T03:31:05;19.27;;;7.33;;
10007;SDS011;5043;41.766;26.204;2022-10-17T03:33:31;9.30;;;7.28;;
10007;SDS011;5043;41.766;26.204;2022-10-17T03:35:57;10.85;;;6.15;;
10007;SDS011;5043;41.766;26.204;2022-10-17T03:38:22;8.35;;;6.80;;
10007;SDS011;5043;41.766;26.204;2022-10-17T03:40:54;11.35;;;7.70;;
10007;SDS011;5043;41.766;26.204;2022-10-17T03:43:20;8.27;;;6.43;;
10007;SDS011;5043;41.766;26.204;2022-10-17T03:45:45;11.50;;;6.82;;
10007;SDS011;5043;41.766;26.204;2022-10-17T03:48:11;10.40;;;7.23;;
10007;SDS011;5043;41.766;26.204;2022-10-17T03:50:36;8.37;;;7.00;;
10007;SDS011;5043;41.766;26.204;2022-10-17T03:53:01;8.27;;;6.63;;
10007;SDS011;5043;41.766;26.204;2022-10-17T03:55:27;10.23;;;6.70;;
10007;SDS011;5043;41.766;26.204;2022-10-17T03:57:52;8.57;;;7.00;;
10007;SDS011;5043;41.766;26.204;2022-10-17T04:00:18;11.60;;;7.23;;
10007;SDS011;5043;41.766;26.204;2022-10-17T04:02:43;7.13;;;6.22;;
10007;SDS011;5043;41.766;26.204;2022-10-17T04:05:09;7.90;;;6.95;;
10007;SDS011;5043;41.766;26.204;2022-10-17T04:07:34;18.07;;;7.20;;
10007;SDS011;5043;41.766;26.204;2022-10-17T04:10:01;13.07;;;6.60;;
10007;SDS011;5043;41.766;26.204;2022-10-17T04:12:27;14.13;;;6.80;;
10007;SDS011;5043;41.766;26.204;2022-10-17T04:14:53;13.50;;;7.60;;
10007;SDS011;5043;41.766;26.204;2022-10-17T04:17:18;15.10;;;6.93;;
10007;SDS011;5043;41.766;26.204;2022-10-17T04:19:44;9.07;;;7.17;;
10007;SDS011;5043;41.766;26.204;2022-10-17T04:22:09;12.37;;;8.00;;
10007;SDS011;5043;41.766;26.204;2022-10-17T04:24:35;12.07;;;7.77;;
10007;SDS011;5043;41.766;26.204;2022-10-17T04:27:00;9.63;;;7.77;;
10007;SDS011;5043;41.766;26.204;2022-10-17T04:29:26;9.37;;;7.23;;
10007;SDS011;5043;41.766;26.204;2022-10-17T04:31:51;14.40;;;7.47;;
10007;SDS011;5043;41.766;26.204;2022-10-17T04:34:17;12.33;;;7.73;;
10007;SDS011;5043;41.766;26.204;2022-10-17T04:36:42;13.77;;;7.50;;
10007;SDS011;5043;41.766;26.204;2022-10-17T04:39:08;9.90;;;7.80;;
10007;SDS011;5043;41.766;26.204;2022-10-17T04:41:33;12.83;;;8.10;;
10007;SDS011;5043;41.766;26.204;2022-10-17T04:43:58;10.23;;;8.00;;
10007;SDS011;5043;41.766;26.204;2022-10-17T04:46:24;11.77;;;7.87;;
10007;SDS011;5043;41.766;26.204;2022-10-17T04:48:49;10.73;;;7.63;;
10007;SDS011;5043;41.766;26.204;2022-10-17T04:51:16;11.52;;;8.45;;
10007;SDS011;5043;41.766;26.204;2022-10-17T04:53:44;9.15;;;8.07;;
10007;SDS011;5043;41.766;26.204;2022-10-17T04:56:13;12.05;;;7.22;;
10007;SDS011;5043;41.766;26.204;2022-10-17T04:58:41;11.33;;;7.30;;
10007;SDS011;5043;41.766;26.204;2022-10-17T05:01:08;9.60;;;7.23;;
10007;SDS011;5043;41.766;26.204;2022-10-17T05:03:38;9.40;;;6.47;;
10007;SDS011;5043;41.766;26.204;2022-10-17T05:06:04;9.18;;;7.20;;
10007;SDS011;5043;41.766;26.204;2022-10-17T05:08:31;13.90;;;7.90;;
10007;SDS011;5043;41.766;26.204;2022-10-17T05:10:57;12.17;;;7.67;;
10007;SDS011;5043;41.766;26.204;2022-10-17T05:13:22;9.20;;;8.13;;
10007;SDS011;5043;41.766;26.204;2022-10-17T05:15:48;14.13;;;8.60;;
10007;SDS011;5043;41.766;26.204;2022-10-17T05:18:13;10.77;;;8.27;;
10007;SDS011;5043;41.766;26.204;2022-10-17T05:20:38;15.33;;;8.80;;
10007;SDS011;5043;41.766;26.204;2022-10-17T05:23:04;12.90;;;8.45;;
10007;SDS011;5043;41.766;26.204;2022-10-17T05:25:30;13.15;;;7.97;;
10007;SDS011;5043;41.766;26.204;2022-10-17T05:27:55;14.82;;;8.38;;
10007;SDS011;5043;41.766;26.204;2022-10-17T05:30:20;10.13;;;7.63;;
10007;SDS011;5043;41.766;26.204;2022-10-17T05:32:46;11.53;;;7.83;;
10007;SDS011;5043;41.766;26.204;2022-10-17T05:35:11;12.20;;;8.02;;
10007;SDS011;5043;41.766;26.204;2022-10-17T05:37:37;13.02;;;7.95;;
10007;SDS011;5043;41.766;26.204;2022-10-17T05:40:02;10.07;;;7.75;;
10007;SDS011;5043;41.766;26.204;2022-10-17T05:42:28;11.52;;;7.25;;
10007;SDS011;5043;41.766;26.204;2022-10-17T05:44:54;11.98;;;7.32;;
10007;SDS011;5043;41.766;26.204;2022-10-17T05:47:19;11.75;;;8.07;;
10007;SDS011;5043;41.766;26.204;2022-10-17T05:49:45;14.53;;;8.57;;
10007;SDS011;5043;41.766;26.204;2022-10-17T05:52:10;16.67;;;8.70;;
10007;SDS011;5043;41.766;26.204;2022-10-17T05:54:35;14.50;;;8.18;;
10007;SDS011;5043;41.766;26.204;2022-10-17T05:57:01;13.53;;;7.50;;
10007;SDS011;5043;41.766;26.204;2022-10-17T05:59:28;11.45;;;8.07;;
10007;SDS011;5043;41.766;26.204;2022-10-17T06:01:53;12.60;;;7.20;;
10007;SDS011;5043;41.766;26.204;2022-10-17T06:04:19;12.48;;;7.15;;
10007;SDS011;5043;41.766;26.204;2022-10-17T06:06:45;13.50;;;6.85;;
10007;SDS011;5043;41.766;26.204;2022-10-17T06:09:10;12.75;;;7.15;;
10007;SDS011;5043;41.766;26.204;2022-10-17T06:11:36;11.05;;;7.80;;
10007;SDS011;5043;41.766;26.204;2022-10-17T06:14:02;8.75;;;7.25;;
10007;SDS011;5043;41.766;26.204;2022-10-17T06:16:27;11.52;;;7.40;;
10007;SDS011;5043;41.766;26.204;2022-10-17T06:18:53;12.25;;;6.32;;
10007;SDS011;5043;41.766;26.204;2022-10-17T06:21:22;14.90;;;6.65;;
10007;SDS011;5043;41.766;26.204;2022-10-17T06:23:51;13.18;;;6.82;;
10007;SDS011;5043;41.766;26.204;2022-10-17T06:26:17;14.15;;;6.22;;
10007;SDS011;5043;41.766;26.204;2022-10-17T06:28:44;10.82;;;5.68;;
10007;SDS011;5043;41.766;26.204;2022-10-17T06:31:10;17.52;;;7.63;;
10007;SDS011;5043;41.766;26.204;2022-10-17T06:33:37;10.75;;;7.03;;
10007;SDS011;5043;41.766;26.204;2022-10-17T06:36:04;11.50;;;6.35;;
10007;SDS011;5043;41.766;26.204;2022-10-17T06:38:30;9.20;;;6.68;;
10007;SDS011;5043;41.766;26.204;2022-10-17T06:41:03;9.55;;;6.68;;
10007;SDS011;5043;41.766;26.204;2022-10-17T06:43:29;10.70;;;7.05;;
10007;SDS011;5043;41.766;26.204;2022-10-17T06:45:54;11.60;;;6.47;;
10007;SDS011;5043;41.766;26.204;2022-10-17T06:48:19;10.45;;;5.95;;
10007;SDS011;5043;41.766;26.204;2022-10-17T06:50:45;13.05;;;6.88;;
10007;SDS011;5043;41.766;26.204;2022-10-17T06:53:10;8.18;;;5.75;;
10007;SDS011;5043;41.766;26.204;2022-10-17T06:55:37;10.68;;;6.38;;
10007;SDS011;5043;41.766;26.204;2022-10-17T06:58:02;9.02;;;6.00;;
10007;SDS011;5043;41.766;26.204;2022-10-17T07:00:28;12.38;;;5.97;;
10007;SDS011;5043;41.766;26.204;2022-10-17T07:02:53;11.70;;;6.28;;
10007;SDS011;5043;41.766;26.204;2022-10-17T07:05:18;9.57;;;5.70;;
10007;SDS011;5043;41.766;26.204;2022-10-17T07:07:44;16.65;;;6.20;;
10007;SDS011;5043;41.766;26.204;2022-10-17T07:10:10;8.98;;;6.20;;
10007;SDS011;5043;41.766;26.204;2022-10-17T07:12:36;8.43;;;6.40;;
10007;SDS011;5043;41.766;26.204;2022-10-17T07:15:02;12.80;;;6.82;;
10007;SDS011;5043;41.766;26.204;2022-10-17T07:17:29;9.15;;;6.22;;
10007;SDS011;5043;41.766;26.204;2022-10-17T07:19:55;9.40;;;5.72;;
10007;SDS011;5043;41.766;26.204;2022-10-17T07:22:20;7.28;;;5.82;;
10007;SDS011;5043;41.766;26.204;2022-10-17T07:24:45;10.88;;;5.95;;
10007;SDS011;5043;41.766;26.204;2022-10-17T07:27:11;7.32;;;6.15;;
10007;SDS011;5043;41.766;26.204;2022-10-17T07:29:37;9.85;;;6.18;;
10007;SDS011;5043;41.766;26.204;2022-10-17T07:32:03;7.85;;;6.10;;
10007;SDS011;5043;41.766;26.204;2022-10-17T07:34:32;8.05;;;6.55;;
10007;SDS011;5043;41.766;26.204;2022-10-17T07:37:02;8.73;;;5.93;;
10007;SDS011;5043;41.766;26.204;2022-10-17T07:39:28;12.60;;;7.05;;
10007;SDS011;5043;41.766;26.204;2022-10-17T07:41:53;10.63;;;6.85;;
10007;SDS011;5043;41.766;26.204;2022-10-17T07:44:20;9.25;;;7.38;;
10007;SDS011;5043;41.766;26.204;2022-10-17T07:46:46;11.43;;;7.43;;
10007;SDS011;5043;41.766;26.204;2022-10-17T07:49:12;10.60;;;6.65;;
10007;SDS011;5043;41.766;26.204;2022-10-17T07:51:38;8.57;;;5.63;;
10007;SDS011;5043;41.766;26.204;2022-10-17T07:54:04;12.95;;;6.18;;
10007;SDS011;5043;41.766;26.204;2022-10-17T07:56:30;10.50;;;7.35;;
10007;SDS011;5043;41.766;26.204;2022-10-17T07:58:55;9.88;;;6.82;;
10007;SDS011;5043;41.766;26.204;2022-10-17T08:01:21;8.85;;;6.18;;
10007;SDS011;5043;41.766;26.204;2022-10-17T08:03:47;8.35;;;6.30;;
10007;SDS011;5043;41.766;26.204;2022-10-17T08:06:13;8.13;;;6.15;;
10007;SDS011;5043;41.766;26.204;2022-10-17T08:08:39;9.45;;;6.38;;
10007;SDS011;5043;41.766;26.204;2022-10-17T08:11:07;8.25;;;5.60;;
10007;SDS011;5043;41.766;26.204;2022-10-17T08:13:37;9.65;;;6.82;;
10007;SDS011;5043;41.766;26.204;2022-10-17T08:16:05;11.27;;;6.15;;
10007;SDS011;5043;41.766;26.204;2022-10-17T08:18:32;11.63;;;6.57;;
10007;SDS011;5043;41.766;26.204;2022-10-17T08:20:58;9.20;;;6.60;;
10007;SDS011;5043;41.766;26.204;2022-10-17T08:23:25;7.85;;;5.97;;
10007;SDS011;5043;41.766;26.204;2022-10-17T08:25:51;7.57;;;5.30;;
10007;SDS011;5043;41.766;26.204;2022-10-17T08:28:16;13.20;;;5.63;;
10007;SDS011;5043;41.766;26.204;2022-10-17T08:30:42;15.40;;;4.50;;
10007;SDS011;5043;41.766;26.204;2022-10-17T08:33:07;9.38;;;5.00;;
10007;SDS011;5043;41.766;26.204;2022-10-17T08:35:33;7.15;;;4.25;;
10007;SDS011;5043;41.766;26.204;2022-10-17T08:37:58;8.23;;;4.18;;
10007;SDS011;5043;41.766;26.204;2022-10-17T08:40:27;7.40;;;4.07;;
10007;SDS011;5043;41.766;26.204;2022-10-17T08:46:04;5.15;;;4.13;;
10007;SDS011;5043;41.766;26.204;2022-10-17T08:48:33;8.90;;;4.35;;
10007;SDS011;5043;41.766;26.204;2022-10-17T08:51:12;4.68;;;3.72;;
10007;SDS011;5043;41.766;26.204;2022-10-17T08:53:43;7.38;;;4.75;;
10007;SDS011;5043;41.766;26.204;2022-10-17T08:56:20;9.65;;;4.50;;
10007;SDS011;5043;41.766;26.204;2022-10-17T08:58:48;5.57;;;4.13;;
10007;SDS011;5043;41.766;26.204;2022-10-17T09:04:08;8.18;;;4.22;;
10007;SDS011;5043;41.766;26.204;2022-10-17T09:17:40;9.48;;;4.05;;
10007;SDS011;5043;41.766;26.204;2022-10-17T09:20:20;7.60;;;3.28;;
10007;SDS011;5043;41.766;26.204;2022-10-17T09:22:51;4.68;;;3.22;;
10007;SDS011;5043;41.766;26.204;2022-10-17T09:25:25;4.78;;;3.78;;
10007;SDS011;5043;41.766;26.204;2022-10-17T09:28:03;6.60;;;3.88;;
10007;SDS011;5043;41.766;26.204;2022-10-17T09:33:37;7.90;;;3.67;;
10007;SDS011;5043;41.766;26.204;2022-10-17T09:36:08;3.80;;;3.42;;
10007;SDS011;5043;41.766;26.204;2022-10-17T09:38:41;10.80;;;3.60;;
10007;SDS011;5043;41.766;26.204;2022-10-17T09:41:15;5.53;;;3.60;;
10007;SDS011;5043;41.766;26.204;2022-10-17T09:43:47;7.47;;;3.88;;
10007;SDS011;5043;41.766;26.204;2022-10-17T09:48:51;5.20;;;4.05;;
10007;SDS011;5043;41.766;26.204;2022-10-17T09:51:25;9.20;;;3.75;;
10007;SDS011;5043;41.766;26.204;2022-10-17T09:53:53;6.95;;;3.83;;
10007;SDS011;5043;41.766;26.204;2022-10-17T09:56:23;4.75;;;3.10;;
10007;SDS011;5043;41.766;26.204;2022-10-17T09:58:50;10.80;;;4.00;;
10007;SDS011;5043;41.766;26.204;2022-10-17T10:04:13;11.40;;;4.15;;
10007;SDS011;5043;41.766;26.204;2022-10-17T10:06:59;11.63;;;3.75;;
10007;SDS011;5043;41.766;26.204;2022-10-17T10:09:45;6.82;;;3.55;;
10007;SDS011;5043;41.766;26.204;2022-10-17T10:12:30;7.93;;;3.90;;
10007;SDS011;5043;41.766;26.204;2022-10-17T10:14:58;5.13;;;3.22;;
10007;SDS011;5043;41.766;26.204;2022-10-17T10:19:52;3.83;;;2.85;;
10007;SDS011;5043;41.766;26.204;2022-10-17T10:22:18;7.22;;;3.08;;
10007;SDS011;5043;41.766;26.204;2022-10-17T10:25:05;5.75;;;3.33;;
10007;SDS011;5043;41.766;26.204;2022-10-17T10:27:40;5.60;;;3.63;;
10007;SDS011;5043;41.766;26.204;2022-10-17T10:30:17;9.38;;;3.50;;
10007;SDS011;5043;41.766;26.204;2022-10-17T10:32:48;5.47;;;3.53;;
10007;SDS011;5043;41.766;26.204;2022-10-17T10:37:46;8.45;;;3.58;;
10007;SDS011;5043;41.766;26.204;2022-10-17T10:40:16;5.40;;;3.50;;
10007;SDS011;5043;41.766;26.204;2022-10-17T10:42:49;5.47;;;3.50;;
10007;SDS011;5043;41.766;26.204;2022-10-17T10:47:57;7.07;;;3.65;;
10007;SDS011;5043;41.766;26.204;2022-10-17T10:50:29;5.13;;;3.13;;
10007;SDS011;5043;41.766;26.204;2022-10-17T10:55:27;7.43;;;3.00;;
10007;SDS011;5043;41.766;26.204;2022-10-17T10:57:59;4.53;;;2.85;;
10007;SDS011;5043;41.766;26.204;2022-10-17T11:00:40;4.45;;;2.75;;
10007;SDS011;5043;41.766;26.204;2022-10-17T11:03:15;4.03;;;2.65;;
10007;SDS011;5043;41.766;26.204;2022-10-17T11:06:03;9.35;;;3.65;;
10007;SDS011;5043;41.766;26.204;2022-10-17T11:08:37;5.45;;;3.15;;
10007;SDS011;5043;41.766;26.204;2022-10-17T11:11:20;4.65;;;2.60;;
10007;SDS011;5043;41.766;26.204;2022-10-17T11:14:07;3.70;;;2.58;;
10007;SDS011;5043;41.766;26.204;2022-10-17T11:22:28;4.85;;;2.45;;
10007;SDS011;5043;41.766;26.204;2022-10-17T11:25:04;5.18;;;2.92;;
10007;SDS011;5043;41.766;26.204;2022-10-17T11:27:39;3.92;;;3.10;;
10007;SDS011;5043;41.766;26.204;2022-10-17T11:30:05;7.90;;;4.22;;
10007;SDS011;5043;41.766;26.204;2022-10-17T11:35:06;4.60;;;2.40;;
10007;SDS011;5043;41.766;26.204;2022-10-17T11:37:42;6.55;;;2.60;;
10007;SDS011;5043;41.766;26.204;2022-10-17T11:45:31;10.60;;;3.00;;
10007;SDS011;5043;41.766;26.204;2022-10-17T11:48:01;6.88;;;3.03;;
10007;SDS011;5043;41.766;26.204;2022-10-17T11:50:36;10.18;;;2.92;;
10007;SDS011;5043;41.766;26.204;2022-10-17T11:53:08;7.38;;;2.83;;
10007;SDS011;5043;41.766;26.204;2022-10-17T11:55:40;8.27;;;3.40;;
10007;SDS011;5043;41.766;26.204;2022-10-17T12:04:13;5.93;;;3.65;;
10007;SDS011;5043;41.766;26.204;2022-10-17T12:14:33;7.30;;;2.53;;
10007;SDS011;5043;41.766;26.204;2022-10-17T12:18:44;5.68;;;2.50;;
10007;SDS011;5043;41.766;26.204;2022-10-17T12:21:10;3.85;;;2.75;;
10007;SDS011;5043;41.766;26.204;2022-10-17T12:23:36;2.63;;;2.40;;
10007;SDS011;5043;41.766;26.204;2022-10-17T12:26:08;5.68;;;2.58;;
10007;SDS011;5043;41.766;26.204;2022-10-17T12:28:42;7.93;;;2.83;;
10007;SDS011;5043;41.766;26.204;2022-10-17T12:38:47;3.50;;;2.35;;
10007;SDS011;5043;41.766;26.204;2022-10-17T12:41:14;3.80;;;2.50;;
10007;SDS011;5043;41.766;26.204;2022-10-17T12:43:50;2.97;;;2.10;;
10007;SDS011;5043;41.766;26.204;2022-10-17T12:57:28;4.97;;;2.30;;
10007;SDS011;5043;41.766;26.204;2022-10-17T13:02:55;5.28;;;2.35;;
10007;SDS011;5043;41.766;26.204;2022-10-17T13:05:28;3.88;;;2.30;;
10007;SDS011;5043;41.766;26.204;2022-10-17T13:07:58;2.80;;;2.17;;
10007;SDS011;5043;41.766;26.204;2022-10-17T13:10:26;3.92;;;2.58;;
10007;SDS011;5043;41.766;26.204;2022-10-17T13:12:57;5.72;;;2.30;;
10007;SDS011;5043;41.766;26.204;2022-10-17T13:15:29;7.40;;;3.63;;
10007;SDS011;5043;41.766;26.204;2022-10-17T13:17:58;5.63;;;3.55;;
10007;SDS011;5043;41.766;26.204;2022-10-17T13:20:25;6.03;;;3.28;;
10007;SDS011;5043;41.766;26.204;2022-10-17T13:22:54;2.28;;;2.00;;
10007;SDS011;5043;41.766;26.204;2022-10-17T13:25:21;4.43;;;2.70;;
10007;SDS011;5043;41.766;26.204;2022-10-17T13:27:48;5.28;;;2.65;;
10007;SDS011;5043;41.766;26.204;2022-10-17T13:30:31;3.95;;;2.05;;
10007;SDS011;5043;41.766;26.204;2022-10-17T13:32:59;5.97;;;2.53;;
10007;SDS011;5043;41.766;26.204;2022-10-17T13:35:43;5.18;;;2.60;;
10007;SDS011;5043;41.766;26.204;2022-10-17T13:38:13;6.97;;;2.72;;
10007;SDS011;5043;41.766;26.204;2022-10-17T13:40:40;5.07;;;3.13;;
10007;SDS011;5043;41.766;26.204;2022-10-17T13:43:10;3.20;;;2.22;;
10007;SDS011;5043;41.766;26.204;2022-10-17T13:45:43;7.18;;;2.53;;
10007;SDS011;5043;41.766;26.204;2022-10-17T13:48:17;6.13;;;2.17;;
10007;SDS011;5043;41.766;26.204;2022-10-17T13:50:51;4.95;;;2.63;;
10007;SDS011;5043;41.766;26.204;2022-10-17T13:53:28;5.20;;;2.83;;
10007;SDS011;5043;41.766;26.204;2022-10-17T13:58:24;8.27;;;3.35;;
10007;SDS011;5043;41.766;26.204;2022-10-17T14:00:52;9.88;;;2.85;;
10007;SDS011;5043;41.766;26.204;2022-10-17T14:03:19;3.53;;;2.15;;
10007;SDS011;5043;41.766;26.204;2022-10-17T14:06:02;4.43;;;2.20;;
10007;SDS011;5043;41.766;26.204;2022-10-17T14:08:38;8.30;;;3.88;;
10007;SDS011;5043;41.766;26.204;2022-10-17T14:11:13;5.57;;;3.67;;
10007;SDS011;5043;41.766;26.204;2022-10-17T14:13:47;3.72;;;3.00;;
10007;SDS011;5043;41.766;26.204;2022-10-17T14:16:14;3.88;;;2.58;;
10007;SDS011;5043;41.766;26.204;2022-10-17T14:18:40;4.57;;;2.65;;
10007;SDS011;5043;41.766;26.204;2022-10-17T14:21:14;5.85;;;2.65;;
10007;SDS011;5043;41.766;26.204;2022-10-17T14:23:43;3.05;;;1.95;;
10007;SDS011;5043;41.766;26.204;2022-10-17T14:28:46;6.22;;;3.00;;
10007;SDS011;5043;41.766;26.204;2022-10-17T14:33:43;3.90;;;2.80;;
10007;SDS011;5043;41.766;26.204;2022-10-17T14:36:10;3.05;;;2.65;;
10007;SDS011;5043;41.766;26.204;2022-10-17T14:38:36;3.58;;;2.28;;
10007;SDS011;5043;41.766;26.204;2022-10-17T14:43:38;4.93;;;3.13;;
10007;SDS011;5043;41.766;26.204;2022-10-17T14:46:04;3.83;;;2.70;;
10007;SDS011;5043;41.766;26.204;2022-10-17T14:48:30;7.75;;;2.92;;
10007;SDS011;5043;41.766;26.204;2022-10-17T14:51:11;7.10;;;2.65;;
10007;SDS011;5043;41.766;26.204;2022-10-17T14:53:40;7.72;;;3.22;;
10007;SDS011;5043;41.766;26.204;2022-10-17T14:56:25;5.25;;;3.17;;
10007;SDS011;5043;41.766;26.204;2022-10-17T14:58:52;6.30;;;3.20;;
10007;SDS011;5043;41.766;26.204;2022-10-17T15:01:18;5.28;;;3.15;;
10007;SDS011;5043;41.766;26.204;2022-10-17T15:03:44;4.55;;;2.80;;
10007;SDS011;5043;41.766;26.204;2022-10-17T15:06:20;6.25;;;2.63;;
10007;SDS011;5043;41.766;26.204;2022-10-17T15:08:50;4.95;;;2.83;;
10007;SDS011;5043;41.766;26.204;2022-10-17T15:11:16;5.50;;;2.90;;
10007;SDS011;5043;41.766;26.204;2022-10-17T15:13:41;5.78;;;2.45;;
10007;SDS011;5043;41.766;26.204;2022-10-17T15:16:20;5.90;;;2.60;;
10007;SDS011;5043;41.766;26.204;2022-10-17T15:18:48;6.88;;;2.45;;
10007;SDS011;5043;41.766;26.204;2022-10-17T15:21:15;4.30;;;2.38;;
10007;SDS011;5043;41.766;26.204;2022-10-17T15:23:42;4.85;;;2.97;;
10007;SDS011;5043;41.766;26.204;2022-10-17T15:26:12;3.45;;;2.60;;
10007;SDS011;5043;41.766;26.204;2022-10-17T15:28:41;4.30;;;2.30;;
10007;SDS011;5043;41.766;26.204;2022-10-17T15:31:11;6.80;;;2.63;;
10007;SDS011;5043;41.766;26.204;2022-10-17T15:33:38;4.03;;;2.75;;
10007;SDS011;5043;41.766;26.204;2022-10-17T15:36:04;8.15;;;3.22;;
10007;SDS011;5043;41.766;26.204;2022-10-17T15:38:30;7.22;;;2.90;;
10007;SDS011;5043;41.766;26.204;2022-10-17T15:40:55;5.82;;;2.83;;
10007;SDS011;5043;41.766;26.204;2022-10-17T15:43:20;6.20;;;3.30;;
10007;SDS011;5043;41.766;26.204;2022-10-17T15:45:46;8.07;;;3.17;;
10007;SDS011;5043;41.766;26.204;2022-10-17T15:48:19;9.07;;;3.35;;
10007;SDS011;5043;41.766;26.204;2022-10-17T15:50:54;4.45;;;2.53;;
10007;SDS011;5043;41.766;26.204;2022-10-17T15:53:19;5.68;;;2.80;;
10007;SDS011;5043;41.766;26.204;2022-10-17T15:55:44;5.03;;;3.00;;
10007;SDS011;5043;41.766;26.204;2022-10-17T15:58:19;5.82;;;3.22;;
10007;SDS011;5043;41.766;26.204;2022-10-17T16:00:44;10.75;;;3.33;;
10007;SDS011;5043;41.766;26.204;2022-10-17T16:03:10;9.43;;;3.58;;
10007;SDS011;5043;41.766;26.204;2022-10-17T16:05:36;7.68;;;3.25;;
10007;SDS011;5043;41.766;26.204;2022-10-17T16:08:03;10.13;;;4.90;;
10007;SDS011;5043;41.766;26.204;2022-10-17T16:10:28;20.85;;;5.35;;
10007;SDS011;5043;41.766;26.204;2022-10-17T16:12:57;8.90;;;5.10;;
10007;SDS011;5043;41.766;26.204;2022-10-17T16:15:23;12.77;;;5.57;;
10007;SDS011;5043;41.766;26.204;2022-10-17T16:17:51;10.88;;;5.70;;
10007;SDS011;5043;41.766;26.204;2022-10-17T16:20:17;10.88;;;4.78;;
10007;SDS011;5043;41.766;26.204;2022-10-17T16:22:44;11.85;;;4.25;;
10007;SDS011;5043;41.766;26.204;2022-10-17T16:25:19;7.80;;;3.55;;
10007;SDS011;5043;41.766;26.204;2022-10-17T16:27:48;5.15;;;3.22;;
10007;SDS011;5043;41.766;26.204;2022-10-17T16:30:15;8.68;;;3.45;;
10007;SDS011;5043;41.766;26.204;2022-10-17T16:32:42;6.85;;;3.13;;
10007;SDS011;5043;41.766;26.204;2022-10-17T16:35:07;5.32;;;2.83;;
10007;SDS011;5043;41.766;26.204;2022-10-17T16:37:33;7.82;;;4.90;;
10007;SDS011;5043;41.766;26.204;2022-10-17T16:40:00;8.55;;;4.60;;
10007;SDS011;5043;41.766;26.204;2022-10-17T16:42:25;11.93;;;5.78;;
10007;SDS011;5043;41.766;26.204;2022-10-17T16:44:53;8.27;;;4.90;;
10007;SDS011;5043;41.766;26.204;2022-10-17T16:47:18;8.73;;;4.05;;
10007;SDS011;5043;41.766;26.204;2022-10-17T16:49:44;5.93;;;3.55;;
10007;SDS011;5043;41.766;26.204;2022-10-17T16:52:10;6.35;;;2.65;;